Anchorage, AK (99507)

2:47 PM AKDT on March 26, 2015 (GMT -0800)
APRSWXNET Anchorage AK US | | Change Station
CLOSE
Current Station
Personal Weather Station
Location: Anchorage, AK
Elevation: 222 ft
Nearby Weather Stations

Elev 222 ft 61.16 °N, 149.80 °W | Updated 3 days ago

Cloudy
Cloudy
41 °F
Feels Like 36 °F
N
7
Wind Variable Wind from ENE
Gusts mph

Today
High -- | Low -- °F
--% Chance of Precip.
Yesterday
High -- | Low -- °F
Precip. -- in
7:41 AM 8:29 PM
Waxing Crescent, 46% visible
Pressure 29.34 in
Visibility 10.0 miles
Clouds Few 6500 ft
Overcast 11000 ft
Windchill 36 °F
Dew Point 30 °F
Humidity 64%
Rainfall in
Snow Depth Not available.
UV 1 out of 12
Pollen Not available.
Air Quality Not available.
Flu Activity Not available.
METAR PAMR 262153Z 00000KT 10SM FEW065 OVC110 04/M06 A2933 RMK AO2 SLP935 T00441061

More Conditions Fewer Conditions

Pressure 29.34 in
Visibility 10.0 miles
Clouds Few 6500 ft
Overcast 11000 ft
Windchill 36 °F
Dew Point 30 °F
Humidity 64%
Rainfall in
Snow Depth Not available.
UV 1 out of 12
Pollen Not available.
Air Quality Not available.
Flu Activity Not available.
METAR PAMR 262153Z 00000KT 10SM FEW065 OVC110 04/M06 A2933 RMK AO2 SLP935 T00441061

More Conditions Fewer Conditions

10-Day Weather Forecast

Almanac

Astronomy

Mar. 26, 2015 Rise Set
Actual Time
Civil Twilight
Nautical Twilight
Astronomical Twilight
Moon
Length of Visible Light
Length of Day
Tomorrow will be .
, % of the Moon is Illuminated

Today's Extremes

State Highs State Lows

Community

WunderPhotos

Upload Photos

1,808,629 photos uploaded!

WunderBlogs® & News

Nearby

Air Quality

  Air Quality AQ Index Pollutant
Not available.

Snow Depth

Station Depth Elevation

Earthquake Activity

City Distance Mag. Time & Date
Minimum magnitude displayed is 2.5.

Coastal Water Temperatures

Place Temperature

Stations

Nearby Weather Stations

Station Location Temp. Windchill Dew Point Humidity Wind Precip. Elev Updated Type